createdAt,value
2018-07-23T00:00:35.826Z,57.1
2018-07-23T00:01:35.643Z,57.14
2018-07-23T00:02:35.804Z,57.07
2018-07-23T00:03:35.840Z,57.02
2018-07-23T00:04:35.843Z,57.11
2018-07-23T00:05:35.817Z,57.13
2018-07-23T00:06:35.948Z,57.01
2018-07-23T00:07:35.678Z,57.08
2018-07-23T00:08:35.699Z,56.98
2018-07-23T00:09:35.832Z,57.19
2018-07-23T00:10:35.609Z,57.11
2018-07-23T00:11:35.605Z,57.16
2018-07-23T00:12:35.630Z,57.01
2018-07-23T00:13:35.900Z,57.14
2018-07-23T00:14:35.850Z,57.04
2018-07-23T00:15:35.783Z,57.12
2018-07-23T00:16:35.724Z,57.06
2018-07-23T00:17:35.606Z,56.99
2018-07-23T00:18:35.683Z,57.01
2018-07-23T00:19:35.875Z,57.19
2018-07-23T00:20:35.711Z,57.02
2018-07-23T00:21:35.879Z,57.16
2018-07-23T00:22:35.847Z,57.13
2018-07-23T00:23:35.661Z,56.97
2018-07-23T00:24:36.077Z,56.95
2018-07-23T00:25:35.634Z,57.08
2018-07-23T00:26:35.817Z,57
2018-07-23T00:27:35.794Z,57.08
2018-07-23T00:28:35.702Z,57.01
2018-07-23T00:29:35.739Z,57.05
2018-07-23T00:30:35.728Z,57.08
2018-07-23T00:31:35.705Z,57.02
2018-07-23T00:32:35.882Z,57.03
2018-07-23T00:33:35.821Z,57.08
2018-07-23T00:34:35.805Z,57.05
2018-07-23T00:35:35.713Z,57.13
2018-07-23T00:36:35.672Z,57.11
2018-07-23T00:37:35.618Z,57
2018-07-23T00:38:35.737Z,57.14
2018-07-23T00:39:35.621Z,57.03
2018-07-23T00:40:35.825Z,57.03
2018-07-23T00:41:35.735Z,57.14
2018-07-23T00:42:35.665Z,57.09
2018-07-23T00:43:35.628Z,56.98
2018-07-23T00:44:35.627Z,57.02
2018-07-23T00:45:35.796Z,57.15
2018-07-23T00:46:35.621Z,57.02
2018-07-23T00:47:35.758Z,56.99
2018-07-23T00:48:35.714Z,57.08
2018-07-23T00:49:35.630Z,56.96
2018-07-23T00:50:35.648Z,57.09
2018-07-23T00:51:35.708Z,57.05
2018-07-23T00:52:35.830Z,57
2018-07-23T00:53:35.912Z,56.93
2018-07-23T00:54:35.673Z,57.14
2018-07-23T00:55:35.586Z,56.96
2018-07-23T00:56:35.684Z,57.06
2018-07-23T00:57:35.738Z,57.01
2018-07-23T00:58:35.801Z,57.05
2018-07-23T00:59:35.624Z,57.03
2018-07-23T01:00:35.639Z,57.01
2018-07-23T01:01:35.620Z,57.01
2018-07-23T01:02:35.860Z,56.98
2018-07-23T01:03:35.740Z,56.95
2018-07-23T01:04:35.595Z,56.97
2018-07-23T01:05:35.649Z,56.95
2018-07-23T01:06:36.058Z,57.06
2018-07-23T01:07:35.786Z,57.09
2018-07-23T01:08:35.747Z,57.01
2018-07-23T01:09:35.780Z,57
2018-07-23T01:10:35.681Z,56.99
2018-07-23T01:11:35.621Z,57.01
2018-07-23T01:12:35.748Z,56.93
2018-07-23T01:13:35.607Z,57.04
2018-07-23T01:14:35.637Z,56.92
2018-07-23T01:15:35.860Z,57.12
2018-07-23T01:16:35.789Z,56.93
2018-07-23T01:17:35.869Z,57
2018-07-23T01:18:35.681Z,57.06
2018-07-23T01:19:35.764Z,57.07
2018-07-23T01:20:35.841Z,56.97
2018-07-23T01:21:35.579Z,57.02
2018-07-23T01:22:35.584Z,56.98
2018-07-23T01:23:35.765Z,57.05
2018-07-23T01:24:35.848Z,57.09
2018-07-23T01:25:35.692Z,57.03
2018-07-23T01:26:35.934Z,56.97
2018-07-23T01:27:35.622Z,57.13
2018-07-23T01:28:35.688Z,56.99
2018-07-23T01:29:35.769Z,56.96
2018-07-23T01:30:35.686Z,56.98
2018-07-23T01:31:35.595Z,56.99
2018-07-23T01:32:35.990Z,57
2018-07-23T01:33:35.718Z,57.03
2018-07-23T01:34:35.667Z,57.06
2018-07-23T01:35:35.777Z,56.95
2018-07-23T01:36:35.950Z,56.96
2018-07-23T01:37:35.863Z,57.12
2018-07-23T01:38:35.699Z,56.94
2018-07-23T01:39:35.863Z,56.98
2018-07-23T01:40:35.537Z,56.97
2018-07-23T01:41:35.700Z,57.08
2018-07-23T01:42:35.632Z,56.96
2018-07-23T01:43:35.755Z,57.1
2018-07-23T01:44:35.807Z,57.07
2018-07-23T01:45:35.616Z,56.96
2018-07-23T01:46:35.750Z,57.04
2018-07-23T01:47:35.881Z,57.05
2018-07-23T01:48:35.605Z,56.99
2018-07-23T01:49:35.687Z,57.13
2018-07-23T01:50:35.718Z,57.02
2018-07-23T01:51:35.600Z,57.11
2018-07-23T01:52:35.770Z,57.05
2018-07-23T01:53:35.797Z,56.96
2018-07-23T01:54:35.706Z,56.98
2018-07-23T01:55:35.731Z,57.09
2018-07-23T01:56:35.741Z,57.09
2018-07-23T01:57:35.640Z,57.17
2018-07-23T01:58:35.555Z,57.05
2018-07-23T01:59:35.797Z,57.08
2018-07-23T02:00:35.578Z,57.12
2018-07-23T02:01:35.593Z,57.14
2018-07-23T02:02:35.635Z,57.1
2018-07-23T02:03:35.841Z,56.98
2018-07-23T02:04:35.612Z,57.09
2018-07-23T02:05:35.665Z,57.04
2018-07-23T02:06:35.729Z,57.09
2018-07-23T02:07:35.744Z,57.02
2018-07-23T02:08:35.793Z,57.02
2018-07-23T02:09:35.748Z,57.15
2018-07-23T02:10:35.794Z,57.01
2018-07-23T02:11:35.684Z,57.01
2018-07-23T02:12:35.756Z,57.12
2018-07-23T02:13:35.739Z,57
2018-07-23T02:14:35.753Z,57.05
2018-07-23T02:15:35.791Z,57.13
2018-07-23T02:16:35.557Z,57.03
2018-07-23T02:17:35.846Z,56.98
2018-07-23T02:18:35.889Z,57.12
2018-07-23T02:19:35.643Z,57.05
2018-07-23T02:20:35.851Z,57.03
2018-07-23T02:21:35.708Z,57.14
2018-07-23T02:22:35.813Z,57.01
2018-07-23T02:23:35.793Z,57.21
2018-07-23T02:24:35.625Z,57.07
2018-07-23T02:25:35.559Z,57.12
2018-07-23T02:26:36.287Z,57.05
2018-07-23T02:27:35.572Z,57.13
2018-07-23T02:28:36.341Z,57.12
2018-07-23T02:29:35.804Z,57.02
2018-07-23T02:30:35.618Z,57.05
2018-07-23T02:31:36.039Z,57.17
2018-07-23T02:32:35.683Z,57.07
2018-07-23T02:33:35.672Z,57.06
2018-07-23T02:34:35.527Z,57.05
2018-07-23T02:35:35.680Z,57.07
2018-07-23T02:36:35.725Z,57.14
2018-07-23T02:37:35.622Z,57.13
2018-07-23T02:38:35.593Z,57.04
2018-07-23T02:39:35.691Z,57.04
2018-07-23T02:40:35.689Z,57.19
2018-07-23T02:41:35.637Z,56.98
2018-07-23T02:42:35.747Z,57.04
2018-07-23T02:43:36.029Z,57.08
2018-07-23T02:44:35.665Z,57.07
2018-07-23T02:45:35.762Z,57.14
2018-07-23T02:46:35.674Z,57.14
2018-07-23T02:47:35.646Z,57.01
2018-07-23T02:48:35.742Z,57.14
2018-07-23T02:49:35.656Z,57.09
2018-07-23T02:50:35.858Z,57.06
2018-07-23T02:51:35.687Z,57.1
2018-07-23T02:52:35.572Z,57.18
2018-07-23T02:53:35.783Z,57.14
2018-07-23T02:54:35.589Z,57.05
2018-07-23T02:55:35.773Z,57.12
2018-07-23T02:56:35.726Z,57.02
2018-07-23T02:57:35.703Z,57.18
2018-07-23T02:58:35.613Z,57.06
2018-07-23T02:59:35.721Z,57.04
2018-07-23T03:00:35.671Z,57.04
2018-07-23T03:01:35.720Z,57.1
2018-07-23T03:02:35.662Z,57.03
2018-07-23T03:03:35.935Z,57.17
2018-07-23T03:04:35.510Z,57.18
2018-07-23T03:05:35.819Z,57.21
2018-07-23T03:06:35.585Z,57.04
2018-07-23T03:07:35.879Z,57.13
2018-07-23T03:08:35.865Z,57
2018-07-23T03:09:35.703Z,57.08
2018-07-23T03:10:35.538Z,57.1
2018-07-23T03:11:35.668Z,56.97
2018-07-23T03:12:35.701Z,57.13
2018-07-23T03:13:35.664Z,57.05
2018-07-23T03:14:35.546Z,57.06
2018-07-23T03:15:35.609Z,57.1
2018-07-23T03:16:35.678Z,57.05
2018-07-23T03:17:35.598Z,57.01
2018-07-23T03:18:35.787Z,57.13
2018-07-23T03:19:35.539Z,57
2018-07-23T03:20:35.716Z,57.13
2018-07-23T03:21:35.773Z,57.02
2018-07-23T03:22:35.553Z,57.13
2018-07-23T03:23:35.570Z,57.15
2018-07-23T03:24:35.730Z,57.07
2018-07-23T03:25:35.596Z,57.11
2018-07-23T03:26:35.656Z,57.02
2018-07-23T03:27:35.687Z,57.16
2018-07-23T03:28:35.548Z,57.12
2018-07-23T03:29:35.596Z,57.04
2018-07-23T03:30:35.777Z,56.98
2018-07-23T03:31:35.699Z,57.05
2018-07-23T03:32:35.563Z,57.2
2018-07-23T03:33:35.931Z,57.03
2018-07-23T03:34:35.742Z,57.1
2018-07-23T03:35:35.520Z,57.08
2018-07-23T03:36:35.676Z,57.13
2018-07-23T03:37:35.695Z,57.02
2018-07-23T03:38:35.758Z,57.11
2018-07-23T03:39:35.550Z,57.02
2018-07-23T03:40:35.604Z,57.01
2018-07-23T03:41:35.802Z,57.05
2018-07-23T03:42:35.611Z,57.09
2018-07-23T03:43:35.640Z,57.03
2018-07-23T03:44:35.619Z,57.07
2018-07-23T03:45:35.611Z,57.05
2018-07-23T03:46:35.650Z,57.08
2018-07-23T03:47:35.651Z,57.15
2018-07-23T03:48:35.612Z,57.16
2018-07-23T03:49:35.491Z,57.06
2018-07-23T03:50:35.803Z,57.09
2018-07-23T03:51:35.567Z,57.12
2018-07-23T03:52:35.855Z,57.1
2018-07-23T03:53:35.666Z,57.05
2018-07-23T03:54:35.753Z,57.06
2018-07-23T03:55:35.544Z,57.03
2018-07-23T03:56:35.760Z,57.01
2018-07-23T03:57:35.636Z,57.04
2018-07-23T03:58:35.841Z,57.05
2018-07-23T03:59:35.655Z,57.09
2018-07-23T04:00:35.669Z,57.17
2018-07-23T04:01:35.599Z,57.08
2018-07-23T04:02:35.601Z,56.99
2018-07-23T04:03:36.252Z,56.97
2018-07-23T04:04:35.549Z,57.01
2018-07-23T04:05:35.747Z,57.08
2018-07-23T04:06:35.707Z,57.01
2018-07-23T04:07:35.990Z,57
2018-07-23T04:08:35.632Z,57.17
2018-07-23T04:09:35.846Z,57.15
2018-07-23T04:10:35.642Z,57.1
2018-07-23T04:11:35.531Z,57.13
2018-07-23T04:12:35.669Z,57.13
2018-07-23T04:13:35.602Z,56.94
2018-07-23T04:14:35.526Z,57.07
2018-07-23T04:15:35.540Z,57.02
2018-07-23T04:16:35.689Z,57.07
2018-07-23T04:17:35.943Z,57.01
2018-07-23T04:18:35.572Z,57.1
2018-07-23T04:19:35.658Z,57
2018-07-23T04:20:35.763Z,57.05
2018-07-23T04:21:35.675Z,57.12
2018-07-23T04:22:35.553Z,57.05
2018-07-23T04:23:35.730Z,56.98
2018-07-23T04:24:35.700Z,57.05
2018-07-23T04:25:35.688Z,57.11
2018-07-23T04:26:35.827Z,56.98
2018-07-23T04:27:35.766Z,57.11
2018-07-23T04:28:35.574Z,57.04
2018-07-23T04:29:35.663Z,57.09
2018-07-23T04:30:35.560Z,57.02
2018-07-23T04:31:35.511Z,57.05
2018-07-23T04:32:35.543Z,57.01
2018-07-23T04:33:35.641Z,56.98
2018-07-23T04:34:35.616Z,57.01
2018-07-23T04:35:35.726Z,57.08
2018-07-23T04:36:35.803Z,57.07
2018-07-23T04:37:35.710Z,57.1
2018-07-23T04:38:35.698Z,56.97
2018-07-23T04:39:35.720Z,57.02
2018-07-23T04:40:35.495Z,57.09
2018-07-23T04:41:35.725Z,57.11
2018-07-23T04:42:35.544Z,57.05
2018-07-23T04:43:35.498Z,56.95
2018-07-23T04:44:35.564Z,57.01
2018-07-23T04:45:35.757Z,57.13
2018-07-23T04:46:35.505Z,57.08
2018-07-23T04:47:35.604Z,57.04
2018-07-23T04:48:35.827Z,57.04
2018-07-23T04:49:35.558Z,57.07
2018-07-23T04:50:35.815Z,57.06
2018-07-23T04:51:35.738Z,57.02
2018-07-23T04:52:35.703Z,57.1
2018-07-23T04:53:35.621Z,56.96
2018-07-23T04:54:35.654Z,56.98
2018-07-23T04:55:35.540Z,57.06
2018-07-23T04:56:35.681Z,56.97
2018-07-23T04:57:35.603Z,57.02
2018-07-23T04:58:35.711Z,57.08
2018-07-23T04:59:35.572Z,57.01
2018-07-23T05:00:35.741Z,57.09
2018-07-23T05:01:35.645Z,57.04
2018-07-23T05:02:35.825Z,57
2018-07-23T05:03:35.653Z,56.97
2018-07-23T05:04:35.795Z,56.9
2018-07-23T05:05:35.731Z,57.03
2018-07-23T05:06:35.689Z,56.94
2018-07-23T05:07:35.557Z,57.09
2018-07-23T05:08:35.778Z,57.12
2018-07-23T05:09:35.746Z,57.02
2018-07-23T05:10:35.639Z,56.97
2018-07-23T05:11:35.513Z,57.05
2018-07-23T05:12:35.790Z,57.06
2018-07-23T05:13:35.847Z,57.11
2018-07-23T05:14:35.499Z,56.87
2018-07-23T05:15:35.749Z,57.07
2018-07-23T05:16:35.814Z,56.94
2018-07-23T05:17:35.578Z,57.14
2018-07-23T05:18:35.636Z,56.91
2018-07-23T05:19:35.531Z,56.89
2018-07-23T05:20:35.609Z,57.04
2018-07-23T05:21:35.684Z,56.94
2018-07-23T05:22:35.736Z,56.96
2018-07-23T05:23:35.549Z,56.94
2018-07-23T05:24:35.923Z,56.95
2018-07-23T05:25:35.602Z,57.04
2018-07-23T05:26:35.748Z,57.01
2018-07-23T05:27:35.710Z,57.11
2018-07-23T05:28:35.606Z,56.95
2018-07-23T05:29:35.699Z,57.01
2018-07-23T05:30:35.631Z,57.08
2018-07-23T05:31:35.771Z,57.02
2018-07-23T05:32:35.734Z,56.96
2018-07-23T05:33:35.624Z,56.97
2018-07-23T05:34:35.670Z,56.94
2018-07-23T05:35:35.697Z,56.97
2018-07-23T05:36:35.647Z,56.97
2018-07-23T05:37:35.569Z,57
2018-07-23T05:38:35.671Z,57.07
2018-07-23T05:39:35.615Z,57.03
2018-07-23T05:40:35.549Z,56.96
2018-07-23T05:41:35.673Z,57.09
2018-07-23T05:42:35.614Z,56.97
2018-07-23T05:43:35.524Z,56.96
2018-07-23T05:44:35.543Z,56.97
2018-07-23T05:45:35.642Z,57.12
2018-07-23T05:46:35.696Z,56.96
2018-07-23T05:47:35.650Z,57.09
2018-07-23T05:48:35.534Z,57.05
2018-07-23T05:49:35.685Z,56.93
2018-07-23T05:50:35.719Z,56.91
2018-07-23T05:51:35.749Z,57.05
2018-07-23T05:52:35.507Z,57.05
2018-07-23T05:53:35.550Z,57.06
2018-07-23T05:54:35.411Z,56.95
2018-07-23T05:55:35.666Z,56.98
2018-07-23T05:56:35.638Z,56.95
2018-07-23T05:57:35.826Z,57.04
2018-07-23T05:58:35.591Z,57.02
2018-07-23T05:59:35.876Z,56.91
2018-07-23T06:00:35.572Z,56.92
2018-07-23T06:01:35.490Z,57.03
2018-07-23T06:02:35.592Z,57.03
2018-07-23T06:03:35.869Z,56.92
2018-07-23T06:04:35.680Z,57.01
2018-07-23T06:05:35.802Z,56.94
2018-07-23T06:06:35.648Z,56.93
2018-07-23T06:07:35.641Z,56.93
2018-07-23T06:08:35.962Z,56.91
2018-07-23T06:09:35.578Z,56.85
2018-07-23T06:10:35.621Z,56.9
2018-07-23T06:11:35.651Z,57.07
2018-07-23T06:12:35.624Z,57.08
2018-07-23T06:13:36.051Z,57.06
2018-07-23T06:14:35.701Z,56.95
2018-07-23T06:15:35.761Z,56.95
2018-07-23T06:16:35.566Z,57.05
2018-07-23T06:17:35.600Z,57
2018-07-23T06:18:35.635Z,57.02
2018-07-23T06:19:35.637Z,56.99
2018-07-23T06:20:35.622Z,56.94
2018-07-23T06:21:35.611Z,57.05
2018-07-23T06:22:35.575Z,57.02
2018-07-23T06:23:35.602Z,56.93
2018-07-23T06:24:35.612Z,57.08
2018-07-23T06:25:35.616Z,56.96
2018-07-23T06:26:35.556Z,56.96
2018-07-23T06:27:35.942Z,56.95
2018-07-23T06:28:35.470Z,56.91
2018-07-23T06:29:35.672Z,56.94
2018-07-23T06:30:35.681Z,56.94
2018-07-23T06:31:35.663Z,57.08
2018-07-23T06:32:35.696Z,57.05
2018-07-23T06:33:35.677Z,56.94
2018-07-23T06:34:36.067Z,57
2018-07-23T06:35:35.585Z,57.07
2018-07-23T06:36:35.592Z,57.14
2018-07-23T06:37:35.559Z,57.01
2018-07-23T06:38:35.626Z,56.95
2018-07-23T06:39:35.604Z,57.07
2018-07-23T06:40:35.669Z,57.07
2018-07-23T06:41:35.818Z,57.06
2018-07-23T06:42:35.457Z,56.96
2018-07-23T06:43:35.717Z,57.02
2018-07-23T06:44:35.542Z,57
2018-07-23T06:45:35.598Z,57.06
2018-07-23T06:46:35.754Z,56.98
2018-07-23T06:47:35.579Z,57.05
2018-07-23T06:48:35.572Z,57.03
2018-07-23T06:49:35.555Z,57.09
2018-07-23T06:50:35.696Z,56.91
2018-07-23T06:51:35.768Z,57.02
2018-07-23T06:52:35.597Z,57.05
2018-07-23T06:53:35.540Z,56.97
2018-07-23T06:54:35.667Z,56.94
2018-07-23T06:55:35.528Z,56.91
2018-07-23T06:56:35.548Z,56.98
2018-07-23T06:57:35.668Z,57.04
2018-07-23T06:58:35.607Z,56.97
2018-07-23T06:59:35.665Z,56.98
2018-07-23T07:00:35.620Z,56.97
2018-07-23T07:01:35.516Z,57.03
2018-07-23T07:02:35.809Z,56.94
2018-07-23T07:03:35.519Z,57.01
2018-07-23T07:04:35.438Z,56.97
2018-07-23T07:05:35.593Z,56.89
2018-07-23T07:06:35.530Z,56.95
2018-07-23T07:07:35.484Z,56.97
2018-07-23T07:08:35.529Z,57
2018-07-23T07:09:35.603Z,56.88
2018-07-23T07:10:35.626Z,56.98
2018-07-23T07:11:35.495Z,56.86
2018-07-23T07:12:35.555Z,57.03
2018-07-23T07:13:35.626Z,56.96
2018-07-23T07:14:35.551Z,57.01
2018-07-23T07:15:35.575Z,56.85
2018-07-23T07:16:35.532Z,56.94
2018-07-23T07:17:35.558Z,56.85
2018-07-23T07:18:35.582Z,56.88
2018-07-23T07:19:35.522Z,57.04
2018-07-23T07:20:35.700Z,57.04
2018-07-23T07:21:35.652Z,56.95
2018-07-23T07:22:35.502Z,57.21
2018-07-23T07:23:35.613Z,57.85
2018-07-23T07:24:35.413Z,57.27
2018-07-23T07:25:35.568Z,57.21
2018-07-23T07:26:35.590Z,57.29
2018-07-23T07:27:35.679Z,57.32
2018-07-23T07:28:35.544Z,57.35
2018-07-23T07:29:35.566Z,57.69
2018-07-23T07:30:35.672Z,57.61
2018-07-23T07:31:35.724Z,57.63
2018-07-23T07:32:35.655Z,57.73
2018-07-23T07:33:35.846Z,57.74
2018-07-23T07:34:35.588Z,57.91
2018-07-23T07:35:35.398Z,57.96
2018-07-23T07:36:35.602Z,58.15
2018-07-23T07:37:35.567Z,57.79
2018-07-23T07:38:35.645Z,58.02
2018-07-23T07:39:35.645Z,58.02
2018-07-23T07:40:35.544Z,58.14
2018-07-23T07:41:35.632Z,57.95
2018-07-23T07:42:35.610Z,58.15
2018-07-23T07:43:35.599Z,58.25
2018-07-23T07:44:35.658Z,58.27
2018-07-23T07:45:35.724Z,57.89
2018-07-23T07:46:35.855Z,57.83
2018-07-23T07:47:35.508Z,57.72
2018-07-23T07:48:35.693Z,57.62
2018-07-23T07:49:35.729Z,57.66
2018-07-23T07:50:35.634Z,57.59
2018-07-23T07:51:35.778Z,57.59
2018-07-23T07:52:35.579Z,57.74
2018-07-23T07:53:35.666Z,57.69
2018-07-23T07:54:35.762Z,57.62
2018-07-23T07:55:35.596Z,57.66
2018-07-23T07:56:35.774Z,57.57
2018-07-23T07:57:35.575Z,57.69
2018-07-23T07:58:35.729Z,57.59
2018-07-23T07:59:35.576Z,57.65
2018-07-23T08:00:35.671Z,57.77
2018-07-23T08:01:35.586Z,57.69
2018-07-23T08:02:35.702Z,57.64
2018-07-23T08:03:35.598Z,57.76
2018-07-23T08:04:35.534Z,57.62
2018-07-23T08:05:35.610Z,57.7
2018-07-23T08:06:35.471Z,57.55
2018-07-23T08:07:35.531Z,57.54
2018-07-23T08:08:35.563Z,57.59
2018-07-23T08:09:35.686Z,57.6
2018-07-23T08:10:35.637Z,57.59
2018-07-23T08:11:35.614Z,57.42
2018-07-23T08:12:35.896Z,57.56
2018-07-23T08:13:35.406Z,57.38
2018-07-23T08:14:36.018Z,57.56
2018-07-23T08:15:35.467Z,57.44
2018-07-23T08:16:35.504Z,57.42
2018-07-23T08:17:35.633Z,57.34
2018-07-23T08:18:35.646Z,57.39
2018-07-23T08:19:35.623Z,57.39
2018-07-23T08:20:35.656Z,57.38
2018-07-23T08:21:35.743Z,57.29
2018-07-23T08:22:35.703Z,57.46
2018-07-23T08:23:35.534Z,57.45
2018-07-23T08:24:35.578Z,57.3
2018-07-23T08:25:35.493Z,57.31
2018-07-23T08:26:35.628Z,57.44
2018-07-23T08:27:35.657Z,57.42
2018-07-23T08:28:35.554Z,57.27
2018-07-23T08:29:35.537Z,57.41
2018-07-23T08:30:35.612Z,57.4
2018-07-23T08:31:35.766Z,57.29
2018-07-23T08:32:35.779Z,57.41
2018-07-23T08:33:35.604Z,57.24
2018-07-23T08:34:35.526Z,57.25
2018-07-23T08:35:35.519Z,57.38
2018-07-23T08:36:35.392Z,57.26
2018-07-23T08:37:35.492Z,57.27
2018-07-23T08:38:35.880Z,57.28
2018-07-23T08:39:35.656Z,57.21
2018-07-23T08:40:35.561Z,57.3
2018-07-23T08:41:35.687Z,57.17
2018-07-23T08:42:35.506Z,57.18
2018-07-23T08:43:35.430Z,57.31
2018-07-23T08:44:35.637Z,57.34
2018-07-23T08:45:35.598Z,57.28
2018-07-23T08:46:35.640Z,57.31
2018-07-23T08:47:35.796Z,57.26
2018-07-23T08:48:35.720Z,57.17
2018-07-23T08:49:35.526Z,57.37
2018-07-23T08:50:35.588Z,57.69
2018-07-23T08:51:35.568Z,57.66
2018-07-23T08:52:45.644Z,57.61
2018-07-23T08:53:35.666Z,57.43
2018-07-23T08:54:35.885Z,57.37
2018-07-23T08:55:35.329Z,57.43
2018-07-23T08:56:35.587Z,57.46
2018-07-23T08:57:35.605Z,57.38
2018-07-23T08:58:35.587Z,57.37
2018-07-23T08:59:35.580Z,57.44
2018-07-23T09:00:35.687Z,57.31
2018-07-23T09:01:35.401Z,57.39
2018-07-23T09:02:35.683Z,57.43
2018-07-23T09:03:35.484Z,57.43
2018-07-23T09:04:35.414Z,57.33
2018-07-23T09:05:35.861Z,57.29
2018-07-23T09:06:35.489Z,57.4
2018-07-23T09:07:35.721Z,57.3
2018-07-23T09:08:35.696Z,57.26
2018-07-23T09:09:35.691Z,57.25
2018-07-23T09:10:35.488Z,57.38
2018-07-23T09:11:35.578Z,57.24
2018-07-23T09:12:35.647Z,57.3
2018-07-23T09:13:35.794Z,57.24
2018-07-23T09:14:35.790Z,57.43
2018-07-23T09:15:35.741Z,57.41
2018-07-23T09:16:35.733Z,57.79
2018-07-23T09:17:35.714Z,57.68
2018-07-23T09:18:35.650Z,57.51
2018-07-23T09:19:45.630Z,57.55
2018-07-23T09:20:35.584Z,57.56
2018-07-23T09:21:35.403Z,57.4
2018-07-23T09:22:35.700Z,57.38
2018-07-23T09:23:35.717Z,57.49
2018-07-23T09:24:35.672Z,57.51
2018-07-23T09:25:35.591Z,57.36
2018-07-23T09:26:35.768Z,57.37
2018-07-23T09:27:35.571Z,57.49
2018-07-23T09:28:35.336Z,57.44
2018-07-23T09:29:35.540Z,57.39
2018-07-23T09:30:35.605Z,57.39
2018-07-23T09:31:35.611Z,57.41
2018-07-23T09:32:35.521Z,57.27
2018-07-23T09:33:35.563Z,57.38
2018-07-23T09:34:35.643Z,57.29
2018-07-23T09:35:35.596Z,57.35
2018-07-23T09:36:35.845Z,57.35
2018-07-23T09:37:35.339Z,57.31
2018-07-23T09:38:36.240Z,57.25
2018-07-23T09:39:35.534Z,57.31
2018-07-23T09:40:35.729Z,57.2
2018-07-23T09:41:35.484Z,57.34
2018-07-23T09:42:35.515Z,57.25
2018-07-23T09:43:35.799Z,57.21
2018-07-23T09:44:35.529Z,57.48
2018-07-23T09:45:35.811Z,57.46
2018-07-23T09:46:35.529Z,57.45
2018-07-23T09:47:35.456Z,57.4
2018-07-23T09:48:35.599Z,57.48
2018-07-23T09:49:35.617Z,57.51
2018-07-23T09:50:35.560Z,57.63
2018-07-23T09:51:35.599Z,57.53
2018-07-23T09:52:35.871Z,57.4
2018-07-23T09:53:35.485Z,57.38
2018-07-23T09:54:35.932Z,57.35
2018-07-23T09:55:35.407Z,57.41
2018-07-23T09:56:35.581Z,57.33
2018-07-23T09:57:35.517Z,57.32
2018-07-23T09:58:35.863Z,57.4
2018-07-23T09:59:35.591Z,57.44
2018-07-23T10:00:35.636Z,57.39
2018-07-23T10:01:35.649Z,57.4
2018-07-23T10:02:35.721Z,57.55
2018-07-23T10:03:35.742Z,58.09
2018-07-23T10:04:35.511Z,57.64
2018-07-23T10:05:35.676Z,58.03
2018-07-23T10:06:35.833Z,58.35
2018-07-23T10:07:35.846Z,57.98
2018-07-23T10:08:35.592Z,58.06
2018-07-23T10:09:35.600Z,57.95
2018-07-23T10:10:35.625Z,57.77
2018-07-23T10:11:35.685Z,57.87
2018-07-23T10:12:35.479Z,57.71
2018-07-23T10:13:35.422Z,57.73
2018-07-23T10:14:35.740Z,57.68
2018-07-23T10:15:35.857Z,57.78
2018-07-23T10:16:35.815Z,57.74
2018-07-23T10:17:35.692Z,57.6
2018-07-23T10:18:35.472Z,57.73
2018-07-23T10:19:35.829Z,57.67
2018-07-23T10:20:35.508Z,57.68
2018-07-23T10:21:35.765Z,57.66
2018-07-23T10:22:35.562Z,57.57
2018-07-23T10:23:35.822Z,57.57
2018-07-23T10:24:36.671Z,57.64
2018-07-23T10:25:36.224Z,57.56
2018-07-23T10:26:35.836Z,57.63
2018-07-23T10:27:36.304Z,57.59
2018-07-23T10:28:36.493Z,57.59
2018-07-23T10:29:36.120Z,57.43
2018-07-23T10:30:35.889Z,57.57
2018-07-23T10:31:35.852Z,57.4
2018-07-23T10:32:35.833Z,57.42
2018-07-23T10:33:36.145Z,57.33
2018-07-23T10:34:36.066Z,57.47
2018-07-23T10:35:35.658Z,57.37
2018-07-23T10:36:35.567Z,57.35
2018-07-23T10:37:37.121Z,57.43
2018-07-23T10:38:35.600Z,57.5
2018-07-23T10:39:35.720Z,57.49
2018-07-23T10:40:35.351Z,57.46
2018-07-23T10:41:35.598Z,57.36
2018-07-23T10:42:35.591Z,57.4
2018-07-23T10:43:35.569Z,57.41
2018-07-23T10:44:35.693Z,57.46
2018-07-23T10:45:35.628Z,57.36
2018-07-23T10:46:35.413Z,57.43
2018-07-23T10:47:35.391Z,57.35
2018-07-23T10:48:35.432Z,57.3
2018-07-23T10:49:35.467Z,57.33
2018-07-23T10:50:35.536Z,57.46
2018-07-23T10:51:35.577Z,57.36
2018-07-23T10:52:35.600Z,57.42
2018-07-23T10:53:35.686Z,57.4
2018-07-23T10:54:35.471Z,57.41
2018-07-23T10:55:35.480Z,57.32
2018-07-23T10:56:35.530Z,57.3
2018-07-23T10:57:35.499Z,57.27
2018-07-23T10:58:35.352Z,57.3
2018-07-23T10:59:35.574Z,57.4
2018-07-23T11:00:35.579Z,57.33
2018-07-23T11:01:35.561Z,57.77
2018-07-23T11:02:35.633Z,57.47
2018-07-23T11:03:35.371Z,57.57
2018-07-23T11:04:35.726Z,57.4
2018-07-23T11:05:35.539Z,58.07
2018-07-23T11:06:35.617Z,57.82
2018-07-23T11:07:35.647Z,57.87
2018-07-23T11:08:35.574Z,57.88
2018-07-23T11:09:35.570Z,58.15
2018-07-23T11:10:35.311Z,58.14
2018-07-23T11:11:35.685Z,58.23
2018-07-23T11:12:37.082Z,58.49
2018-07-23T11:13:35.670Z,58.55
2018-07-23T11:14:35.553Z,58.19
2018-07-23T11:15:35.472Z,58.35
2018-07-23T11:16:35.497Z,58.29
2018-07-23T11:17:35.563Z,58.41
2018-07-23T11:18:35.563Z,58.39
2018-07-23T11:19:35.944Z,58.27
2018-07-23T11:20:35.806Z,58.19
2018-07-23T11:21:35.493Z,58.21
2018-07-23T11:22:35.606Z,58.18
2018-07-23T11:23:35.442Z,58.02
2018-07-23T11:24:35.953Z,58.12
2018-07-23T11:25:41.090Z,58.11
2018-07-23T11:26:35.960Z,58.16
2018-07-23T11:27:35.634Z,58.18
2018-07-23T11:28:35.567Z,58.26
2018-07-23T11:29:35.829Z,58.4
2018-07-23T11:30:35.933Z,58.39
2018-07-23T11:31:35.613Z,58.2
2018-07-23T11:32:35.829Z,58.1
2018-07-23T11:33:35.965Z,58.22
2018-07-23T11:34:35.368Z,58.2
2018-07-23T11:35:35.551Z,58.1
2018-07-23T11:36:35.640Z,58.29
2018-07-23T11:37:35.834Z,58.1
2018-07-23T11:38:35.814Z,58.17
2018-07-23T11:39:35.742Z,58.19
2018-07-23T11:40:35.481Z,58.19
2018-07-23T11:41:35.591Z,58.22
2018-07-23T11:42:35.636Z,58
2018-07-23T11:43:35.246Z,58.09
2018-07-23T11:44:35.361Z,58.21
2018-07-23T11:45:35.823Z,58.11
2018-07-23T11:46:35.427Z,58
2018-07-23T11:47:35.452Z,58
2018-07-23T11:48:35.644Z,57.95
2018-07-23T11:49:35.519Z,57.95
2018-07-23T11:50:35.492Z,57.92
2018-07-23T11:51:35.762Z,58.08
2018-07-23T11:52:35.318Z,57.9
2018-07-23T11:53:35.987Z,57.94
2018-07-23T11:54:35.562Z,57.99
2018-07-23T11:55:35.417Z,57.96
2018-07-23T11:56:35.677Z,57.9
2018-07-23T11:57:35.507Z,58.04
2018-07-23T11:58:35.714Z,57.99
2018-07-23T11:59:35.554Z,57.95
2018-07-23T12:00:35.730Z,57.88
2018-07-23T12:01:35.325Z,57.86
2018-07-23T12:02:35.430Z,57.87
2018-07-23T12:03:35.647Z,57.87
2018-07-23T12:04:36.060Z,57.9
2018-07-23T12:05:35.555Z,57.84
2018-07-23T12:06:35.463Z,57.78
2018-07-23T12:07:35.427Z,57.73
2018-07-23T12:08:35.530Z,57.79
2018-07-23T12:09:35.603Z,57.73
2018-07-23T12:10:35.331Z,57.66
2018-07-23T12:11:35.507Z,57.59
2018-07-23T12:12:35.537Z,57.71
2018-07-23T12:13:35.282Z,57.58
2018-07-23T12:14:35.559Z,57.54
2018-07-23T12:15:35.668Z,57.66
2018-07-23T12:16:35.381Z,57.6
2018-07-23T12:17:35.739Z,57.49
2018-07-23T12:18:35.549Z,57.47
2018-07-23T12:19:35.309Z,57.59
2018-07-23T12:20:35.460Z,57.54
2018-07-23T12:21:35.338Z,57.59
2018-07-23T12:22:35.632Z,57.5
2018-07-23T12:23:35.621Z,57.43
2018-07-23T12:24:35.522Z,57.51
2018-07-23T12:25:35.597Z,57.45
2018-07-23T12:26:35.437Z,57.49
2018-07-23T12:27:35.407Z,57.36
2018-07-23T12:28:35.349Z,57.43
2018-07-23T12:29:35.568Z,57.4
2018-07-23T12:30:35.668Z,57.56
2018-07-23T12:31:35.820Z,57.49
2018-07-23T12:32:35.618Z,57.38
2018-07-23T12:33:35.628Z,57.44
2018-07-23T12:34:35.494Z,57.37
2018-07-23T12:35:35.581Z,57.37
2018-07-23T12:36:35.691Z,57.45
2018-07-23T12:37:35.348Z,57.4
2018-07-23T12:38:35.572Z,57.46
2018-07-23T12:39:35.764Z,57.43
2018-07-23T12:40:35.398Z,57.37
2018-07-23T12:41:35.504Z,57.39
2018-07-23T12:42:35.428Z,57.4
2018-07-23T12:43:35.532Z,57.35
2018-07-23T12:44:35.332Z,57.41
2018-07-23T12:45:35.515Z,57.31
2018-07-23T12:46:35.620Z,57.38
2018-07-23T12:47:35.371Z,57.41
2018-07-23T12:48:35.558Z,57.32
2018-07-23T12:49:35.786Z,57.37
2018-07-23T12:50:35.504Z,57.37
2018-07-23T12:51:35.767Z,57.36
2018-07-23T12:52:35.629Z,57.37
2018-07-23T12:53:35.596Z,57.33
2018-07-23T12:54:35.646Z,57.28
2018-07-23T12:55:35.354Z,57.38
2018-07-23T12:56:35.674Z,57.42